Montpelier, Indiana
Current Conditions -  °F | °C
As of 8:35 PM on Monday 24 Nov 2014 (Local Time) from KMZZ Reporting Station
NA  
Wind Chill: 22°   Ceiling: NA
Heat Index: 34°   Visibility: 10mi
Dew Point: 28°   Wind: 24mph
Humidity: 78%   Direction: 250°WSW
Pressure: 29.81"   Gusts: 31mph
Location:  40.55°N, 85.28°W
Report Text: KMZZ 250135Z AUTO 25021G27KT 10SM 01/M02 A2981 RMK AO2 T00111023
Loading
Personal Weather Stations






























Interactive Weather Map New forecast layout! Learn more

10-Day Weather Forecast

Advertisements
Track Severe Weather on mobile